sensor_id;sensor_type;location;lat;lon;timestamp;P1;durP1;ratioP1;P2;durP2;ratioP2
23252;SDS011;11795;47.054;15.408;2023-09-07T00:01:59;5.5;;;5.0;;
23252;SDS011;11795;47.054;15.408;2023-09-07T00:03:59;5.5;;;5.0;;
23252;SDS011;11795;47.054;15.408;2023-09-07T00:05:59;5.5;;;5.0;;
23252;SDS011;11795;47.054;15.408;2023-09-07T00:07:59;5.5;;;5.0;;
23252;SDS011;11795;47.054;15.408;2023-09-07T00:09:59;5.5;;;5.0;;
23252;SDS011;11795;47.054;15.408;2023-09-07T00:11:59;5.2;;;4.7;;
23252;SDS011;11795;47.054;15.408;2023-09-07T00:13:59;5.2;;;4.7;;
23252;SDS011;11795;47.054;15.408;2023-09-07T00:15:59;5.2;;;4.7;;
23252;SDS011;11795;47.054;15.408;2023-09-07T00:17:59;5.1;;;4.6;;
23252;SDS011;11795;47.054;15.408;2023-09-07T00:19:59;5.1;;;4.6;;
23252;SDS011;11795;47.054;15.408;2023-09-07T00:21:59;5.6;;;5.1;;
23252;SDS011;11795;47.054;15.408;2023-09-07T00:23:59;5.6;;;5.1;;
23252;SDS011;11795;47.054;15.408;2023-09-07T00:25:59;5.6;;;5.1;;
23252;SDS011;11795;47.054;15.408;2023-09-07T00:27:59;5.4;;;4.7;;
23252;SDS011;11795;47.054;15.408;2023-09-07T00:29:59;5.4;;;4.7;;
23252;SDS011;11795;47.054;15.408;2023-09-07T00:31:59;5.4;;;4.9;;
23252;SDS011;11795;47.054;15.408;2023-09-07T00:33:59;5.4;;;4.9;;
23252;SDS011;11795;47.054;15.408;2023-09-07T00:36:01;5.4;;;4.9;;
23252;SDS011;11795;47.054;15.408;2023-09-07T00:37:59;5.9;;;5.0;;
23252;SDS011;11795;47.054;15.408;2023-09-07T00:39:59;5.9;;;5.0;;
23252;SDS011;11795;47.054;15.408;2023-09-07T00:41:59;5.3;;;4.8;;
23252;SDS011;11795;47.054;15.408;2023-09-07T00:43:59;5.3;;;4.8;;
23252;SDS011;11795;47.054;15.408;2023-09-07T00:45:59;5.3;;;4.8;;
23252;SDS011;11795;47.054;15.408;2023-09-07T00:47:59;5.6;;;5.1;;
23252;SDS011;11795;47.054;15.408;2023-09-07T00:49:59;5.6;;;5.1;;
23252;SDS011;11795;47.054;15.408;2023-09-07T00:51:59;5.5;;;5.0;;
23252;SDS011;11795;47.054;15.408;2023-09-07T00:53:59;5.5;;;5.0;;
23252;SDS011;11795;47.054;15.408;2023-09-07T00:55:59;5.5;;;5.0;;
23252;SDS011;11795;47.054;15.408;2023-09-07T00:57:59;5.6;;;5.0;;
23252;SDS011;11795;47.054;15.408;2023-09-07T00:59:59;5.6;;;5.0;;
23252;SDS011;11795;47.054;15.408;2023-09-07T01:01:59;5.2;;;4.8;;
23252;SDS011;11795;47.054;15.408;2023-09-07T01:03:59;5.2;;;4.8;;
23252;SDS011;11795;47.054;15.408;2023-09-07T01:06:01;5.2;;;4.8;;
23252;SDS011;11795;47.054;15.408;2023-09-07T01:08:00;6.1;;;5.5;;
23252;SDS011;11795;47.054;15.408;2023-09-07T01:09:59;6.1;;;5.5;;
23252;SDS011;11795;47.054;15.408;2023-09-07T01:11:59;5.8;;;5.3;;
23252;SDS011;11795;47.054;15.408;2023-09-07T01:13:59;5.8;;;5.3;;
23252;SDS011;11795;47.054;15.408;2023-09-07T01:15:59;5.8;;;5.3;;
23252;SDS011;11795;47.054;15.408;2023-09-07T01:17:59;5.2;;;4.8;;
23252;SDS011;11795;47.054;15.408;2023-09-07T01:19:59;5.2;;;4.8;;
23252;SDS011;11795;47.054;15.408;2023-09-07T01:21:59;6.1;;;5.6;;
23252;SDS011;11795;47.054;15.408;2023-09-07T01:23:59;6.1;;;5.6;;
23252;SDS011;11795;47.054;15.408;2023-09-07T01:25:59;6.1;;;5.6;;
23252;SDS011;11795;47.054;15.408;2023-09-07T01:27:59;5.8;;;5.3;;
23252;SDS011;11795;47.054;15.408;2023-09-07T01:29:59;5.8;;;5.3;;
23252;SDS011;11795;47.054;15.408;2023-09-07T01:31:59;6.1;;;5.5;;
23252;SDS011;11795;47.054;15.408;2023-09-07T01:33:59;6.1;;;5.5;;
23252;SDS011;11795;47.054;15.408;2023-09-07T01:35:59;6.1;;;5.5;;
23252;SDS011;11795;47.054;15.408;2023-09-07T01:37:59;5.3;;;4.9;;
23252;SDS011;11795;47.054;15.408;2023-09-07T01:40:00;5.3;;;4.9;;
23252;SDS011;11795;47.054;15.408;2023-09-07T01:41:59;6.5;;;5.1;;
23252;SDS011;11795;47.054;15.408;2023-09-07T01:43:59;6.5;;;5.1;;
23252;SDS011;11795;47.054;15.408;2023-09-07T01:45:59;6.5;;;5.1;;
23252;SDS011;11795;47.054;15.408;2023-09-07T01:47:59;5.5;;;5.0;;
23252;SDS011;11795;47.054;15.408;2023-09-07T01:49:59;5.5;;;5.0;;
23252;SDS011;11795;47.054;15.408;2023-09-07T01:51:59;5.9;;;5.4;;
23252;SDS011;11795;47.054;15.408;2023-09-07T01:53:59;5.9;;;5.4;;
23252;SDS011;11795;47.054;15.408;2023-09-07T01:55:59;5.9;;;5.4;;
23252;SDS011;11795;47.054;15.408;2023-09-07T01:57:59;6.3;;;5.7;;
23252;SDS011;11795;47.054;15.408;2023-09-07T01:59:59;6.3;;;5.7;;
23252;SDS011;11795;47.054;15.408;2023-09-07T02:01:59;6.2;;;5.6;;
23252;SDS011;11795;47.054;15.408;2023-09-07T02:03:59;6.2;;;5.6;;
23252;SDS011;11795;47.054;15.408;2023-09-07T02:05:59;6.2;;;5.6;;
23252;SDS011;11795;47.054;15.408;2023-09-07T02:07:59;5.7;;;5.2;;
23252;SDS011;11795;47.054;15.408;2023-09-07T02:09:59;5.7;;;5.2;;
23252;SDS011;11795;47.054;15.408;2023-09-07T02:11:59;5.6;;;5.1;;
23252;SDS011;11795;47.054;15.408;2023-09-07T02:13:59;5.6;;;5.1;;
23252;SDS011;11795;47.054;15.408;2023-09-07T02:16:02;5.6;;;5.1;;
23252;SDS011;11795;47.054;15.408;2023-09-07T02:17:59;5.4;;;4.9;;
23252;SDS011;11795;47.054;15.408;2023-09-07T02:19:59;5.4;;;4.9;;
23252;SDS011;11795;47.054;15.408;2023-09-07T02:21:59;5.6;;;5.1;;
23252;SDS011;11795;47.054;15.408;2023-09-07T02:23:58;5.6;;;5.1;;
23252;SDS011;11795;47.054;15.408;2023-09-07T02:25:59;5.6;;;5.1;;
23252;SDS011;11795;47.054;15.408;2023-09-07T02:27:59;7.0;;;5.4;;
23252;SDS011;11795;47.054;15.408;2023-09-07T02:29:59;7.0;;;5.4;;
23252;SDS011;11795;47.054;15.408;2023-09-07T02:31:59;5.8;;;5.3;;
23252;SDS011;11795;47.054;15.408;2023-09-07T02:33:58;5.8;;;5.3;;
23252;SDS011;11795;47.054;15.408;2023-09-07T02:35:59;5.8;;;5.3;;
23252;SDS011;11795;47.054;15.408;2023-09-07T02:37:58;5.5;;;5.0;;
23252;SDS011;11795;47.054;15.408;2023-09-07T02:39:58;5.5;;;5.0;;
23252;SDS011;11795;47.054;15.408;2023-09-07T02:41:59;5.5;;;5.0;;
23252;SDS011;11795;47.054;15.408;2023-09-07T02:43:59;5.5;;;5.0;;
23252;SDS011;11795;47.054;15.408;2023-09-07T02:45:59;5.5;;;5.0;;
23252;SDS011;11795;47.054;15.408;2023-09-07T02:47:59;5.2;;;4.7;;
23252;SDS011;11795;47.054;15.408;2023-09-07T02:49:59;5.2;;;4.7;;
23252;SDS011;11795;47.054;15.408;2023-09-07T02:51:59;5.6;;;5.1;;
23252;SDS011;11795;47.054;15.408;2023-09-07T02:54:01;5.6;;;5.1;;
23252;SDS011;11795;47.054;15.408;2023-09-07T02:55:59;5.6;;;5.1;;
23252;SDS011;11795;47.054;15.408;2023-09-07T02:57:59;5.6;;;5.1;;
23252;SDS011;11795;47.054;15.408;2023-09-07T02:59:59;5.6;;;5.1;;
23252;SDS011;11795;47.054;15.408;2023-09-07T03:01:59;5.7;;;5.2;;
23252;SDS011;11795;47.054;15.408;2023-09-07T03:03:58;5.7;;;5.2;;
23252;SDS011;11795;47.054;15.408;2023-09-07T03:05:59;5.7;;;5.2;;
23252;SDS011;11795;47.054;15.408;2023-09-07T03:07:58;5.2;;;4.8;;
23252;SDS011;11795;47.054;15.408;2023-09-07T03:09:59;5.2;;;4.8;;
23252;SDS011;11795;47.054;15.408;2023-09-07T03:11:58;5.3;;;4.8;;
23252;SDS011;11795;47.054;15.408;2023-09-07T03:13:59;5.3;;;4.8;;
23252;SDS011;11795;47.054;15.408;2023-09-07T03:15:59;5.3;;;4.8;;
23252;SDS011;11795;47.054;15.408;2023-09-07T03:17:59;5.5;;;5.0;;
23252;SDS011;11795;47.054;15.408;2023-09-07T03:19:58;5.5;;;5.0;;
23252;SDS011;11795;47.054;15.408;2023-09-07T03:21:59;5.4;;;4.9;;
23252;SDS011;11795;47.054;15.408;2023-09-07T03:23:58;5.4;;;4.9;;
23252;SDS011;11795;47.054;15.408;2023-09-07T03:25:59;5.4;;;4.9;;
23252;SDS011;11795;47.054;15.408;2023-09-07T03:27:59;6.3;;;5.7;;
23252;SDS011;11795;47.054;15.408;2023-09-07T03:29:59;6.3;;;5.7;;
23252;SDS011;11795;47.054;15.408;2023-09-07T03:31:58;6.3;;;5.7;;
23252;SDS011;11795;47.054;15.408;2023-09-07T03:33:58;6.3;;;5.7;;
23252;SDS011;11795;47.054;15.408;2023-09-07T03:35:59;6.3;;;5.7;;
23252;SDS011;11795;47.054;15.408;2023-09-07T03:37:58;5.4;;;4.9;;
23252;SDS011;11795;47.054;15.408;2023-09-07T03:39:58;5.4;;;4.9;;
23252;SDS011;11795;47.054;15.408;2023-09-07T03:41:59;6.4;;;5.6;;
23252;SDS011;11795;47.054;15.408;2023-09-07T03:43:59;6.4;;;5.6;;
23252;SDS011;11795;47.054;15.408;2023-09-07T03:45:59;6.4;;;5.6;;
23252;SDS011;11795;47.054;15.408;2023-09-07T03:47:59;5.7;;;5.2;;
23252;SDS011;11795;47.054;15.408;2023-09-07T03:49:59;5.7;;;5.2;;
23252;SDS011;11795;47.054;15.408;2023-09-07T03:51:58;7.4;;;6.4;;
23252;SDS011;11795;47.054;15.408;2023-09-07T03:53:59;7.4;;;6.4;;
23252;SDS011;11795;47.054;15.408;2023-09-07T03:55:58;7.4;;;6.4;;
23252;SDS011;11795;47.054;15.408;2023-09-07T03:57:58;6.9;;;6.3;;
23252;SDS011;11795;47.054;15.408;2023-09-07T03:59:59;6.9;;;6.3;;
23252;SDS011;11795;47.054;15.408;2023-09-07T04:01:59;6.3;;;5.7;;
23252;SDS011;11795;47.054;15.408;2023-09-07T04:03:58;6.3;;;5.7;;
23252;SDS011;11795;47.054;15.408;2023-09-07T04:05:59;6.3;;;5.7;;
23252;SDS011;11795;47.054;15.408;2023-09-07T04:07:59;6.1;;;5.5;;
23252;SDS011;11795;47.054;15.408;2023-09-07T04:09:58;6.1;;;5.5;;
23252;SDS011;11795;47.054;15.408;2023-09-07T04:11:58;6.4;;;5.7;;
23252;SDS011;11795;47.054;15.408;2023-09-07T04:13:58;6.4;;;5.7;;
23252;SDS011;11795;47.054;15.408;2023-09-07T04:15:59;6.4;;;5.7;;
23252;SDS011;11795;47.054;15.408;2023-09-07T04:17:59;6.4;;;5.8;;
23252;SDS011;11795;47.054;15.408;2023-09-07T04:19:59;6.4;;;5.8;;
23252;SDS011;11795;47.054;15.408;2023-09-07T04:21:59;6.7;;;6.1;;
23252;SDS011;11795;47.054;15.408;2023-09-07T04:23:58;6.7;;;6.1;;
23252;SDS011;11795;47.054;15.408;2023-09-07T04:26:03;6.7;;;6.1;;
23252;SDS011;11795;47.054;15.408;2023-09-07T04:28:03;6.5;;;5.9;;
23252;SDS011;11795;47.054;15.408;2023-09-07T04:33:59;6.3;;;5.6;;
23252;SDS011;11795;47.054;15.408;2023-09-07T04:36:05;6.3;;;5.6;;
23252;SDS011;11795;47.054;15.408;2023-09-07T04:37:59;6.1;;;5.5;;
23252;SDS011;11795;47.054;15.408;2023-09-07T04:39:58;6.1;;;5.5;;
23252;SDS011;11795;47.054;15.408;2023-09-07T04:41:58;5.6;;;5.1;;
23252;SDS011;11795;47.054;15.408;2023-09-07T04:43:58;5.6;;;5.1;;
23252;SDS011;11795;47.054;15.408;2023-09-07T04:45:58;5.6;;;5.1;;
23252;SDS011;11795;47.054;15.408;2023-09-07T04:47:58;5.9;;;5.3;;
23252;SDS011;11795;47.054;15.408;2023-09-07T04:49:58;5.9;;;5.3;;
23252;SDS011;11795;47.054;15.408;2023-09-07T04:51:58;6.8;;;6.1;;
23252;SDS011;11795;47.054;15.408;2023-09-07T04:53:58;6.8;;;6.1;;
23252;SDS011;11795;47.054;15.408;2023-09-07T04:55:59;6.8;;;6.1;;
23252;SDS011;11795;47.054;15.408;2023-09-07T04:57:58;6.6;;;5.9;;
23252;SDS011;11795;47.054;15.408;2023-09-07T04:59:59;6.6;;;5.9;;
23252;SDS011;11795;47.054;15.408;2023-09-07T05:01:59;8.2;;;6.9;;
23252;SDS011;11795;47.054;15.408;2023-09-07T05:03:58;8.2;;;6.9;;
23252;SDS011;11795;47.054;15.408;2023-09-07T05:05:59;8.2;;;6.9;;
23252;SDS011;11795;47.054;15.408;2023-09-07T05:07:58;8.6;;;7.2;;
23252;SDS011;11795;47.054;15.408;2023-09-07T05:09:58;8.6;;;7.2;;
23252;SDS011;11795;47.054;15.408;2023-09-07T05:11:58;8.4;;;7.2;;
23252;SDS011;11795;47.054;15.408;2023-09-07T05:13:58;8.4;;;7.2;;
23252;SDS011;11795;47.054;15.408;2023-09-07T05:15:59;8.4;;;7.2;;
23252;SDS011;11795;47.054;15.408;2023-09-07T05:17:58;6.9;;;6.3;;
23252;SDS011;11795;47.054;15.408;2023-09-07T05:19:58;6.9;;;6.3;;
23252;SDS011;11795;47.054;15.408;2023-09-07T05:21:58;6.9;;;6.3;;
23252;SDS011;11795;47.054;15.408;2023-09-07T05:23:58;6.9;;;6.3;;
23252;SDS011;11795;47.054;15.408;2023-09-07T05:25:58;6.9;;;6.3;;
23252;SDS011;11795;47.054;15.408;2023-09-07T05:27:58;8.0;;;6.9;;
23252;SDS011;11795;47.054;15.408;2023-09-07T05:29:58;8.0;;;6.9;;
23252;SDS011;11795;47.054;15.408;2023-09-07T05:31:58;8.0;;;6.9;;
23252;SDS011;11795;47.054;15.408;2023-09-07T05:33:59;8.7;;;6.9;;
23252;SDS011;11795;47.054;15.408;2023-09-07T05:35:58;8.7;;;6.9;;
23252;SDS011;11795;47.054;15.408;2023-09-07T05:37:58;6.8;;;6.2;;
23252;SDS011;11795;47.054;15.408;2023-09-07T05:39:58;6.8;;;6.2;;
23252;SDS011;11795;47.054;15.408;2023-09-07T05:41:58;6.8;;;6.2;;
23252;SDS011;11795;47.054;15.408;2023-09-07T05:43:58;7.0;;;6.3;;
23252;SDS011;11795;47.054;15.408;2023-09-07T05:45:58;7.0;;;6.3;;
23252;SDS011;11795;47.054;15.408;2023-09-07T05:47:58;8.4;;;6.7;;
23252;SDS011;11795;47.054;15.408;2023-09-07T05:49:58;8.4;;;6.7;;
23252;SDS011;11795;47.054;15.408;2023-09-07T05:51:58;8.4;;;6.7;;
23252;SDS011;11795;47.054;15.408;2023-09-07T05:53:58;7.9;;;6.8;;
23252;SDS011;11795;47.054;15.408;2023-09-07T05:55:58;7.9;;;6.8;;
23252;SDS011;11795;47.054;15.408;2023-09-07T05:57:58;7.3;;;6.4;;
23252;SDS011;11795;47.054;15.408;2023-09-07T05:59:58;7.3;;;6.4;;
23252;SDS011;11795;47.054;15.408;2023-09-07T06:01:58;7.3;;;6.4;;
23252;SDS011;11795;47.054;15.408;2023-09-07T06:03:58;9.2;;;6.8;;
23252;SDS011;11795;47.054;15.408;2023-09-07T06:05:58;9.2;;;6.8;;
23252;SDS011;11795;47.054;15.408;2023-09-07T06:07:58;8.1;;;7.1;;
23252;SDS011;11795;47.054;15.408;2023-09-07T06:09:58;8.1;;;7.1;;
23252;SDS011;11795;47.054;15.408;2023-09-07T06:11:58;8.1;;;7.1;;
23252;SDS011;11795;47.054;15.408;2023-09-07T06:13:58;8.0;;;6.2;;
23252;SDS011;11795;47.054;15.408;2023-09-07T06:16:00;8.0;;;6.2;;
23252;SDS011;11795;47.054;15.408;2023-09-07T06:17:58;7.2;;;6.5;;
23252;SDS011;11795;47.054;15.408;2023-09-07T06:19:58;7.2;;;6.5;;
23252;SDS011;11795;47.054;15.408;2023-09-07T06:21:58;7.2;;;6.5;;
23252;SDS011;11795;47.054;15.408;2023-09-07T06:23:58;6.7;;;6.0;;
23252;SDS011;11795;47.054;15.408;2023-09-07T06:25:59;6.7;;;6.0;;
23252;SDS011;11795;47.054;15.408;2023-09-07T06:27:58;8.6;;;7.0;;
23252;SDS011;11795;47.054;15.408;2023-09-07T06:29:58;8.6;;;7.0;;
23252;SDS011;11795;47.054;15.408;2023-09-07T06:31:58;8.6;;;7.0;;
23252;SDS011;11795;47.054;15.408;2023-09-07T06:33:58;6.8;;;6.1;;
23252;SDS011;11795;47.054;15.408;2023-09-07T06:36:01;6.8;;;6.1;;
23252;SDS011;11795;47.054;15.408;2023-09-07T06:37:58;6.6;;;5.7;;
23252;SDS011;11795;47.054;15.408;2023-09-07T06:39:58;6.6;;;5.7;;
23252;SDS011;11795;47.054;15.408;2023-09-07T06:41:58;6.6;;;5.7;;
23252;SDS011;11795;47.054;15.408;2023-09-07T06:43:58;7.0;;;6.0;;
23252;SDS011;11795;47.054;15.408;2023-09-07T06:46:02;7.0;;;6.0;;
23252;SDS011;11795;47.054;15.408;2023-09-07T06:47:58;6.6;;;5.9;;
23252;SDS011;11795;47.054;15.408;2023-09-07T06:49:58;6.6;;;5.9;;
23252;SDS011;11795;47.054;15.408;2023-09-07T06:51:58;6.6;;;5.9;;
23252;SDS011;11795;47.054;15.408;2023-09-07T06:53:58;7.6;;;6.0;;
23252;SDS011;11795;47.054;15.408;2023-09-07T06:55:58;7.6;;;6.0;;
23252;SDS011;11795;47.054;15.408;2023-09-07T06:58:00;5.5;;;4.9;;
23252;SDS011;11795;47.054;15.408;2023-09-07T06:59:58;5.5;;;4.9;;
23252;SDS011;11795;47.054;15.408;2023-09-07T07:02:00;5.5;;;4.9;;
23252;SDS011;11795;47.054;15.408;2023-09-07T07:03:59;6.3;;;5.7;;
23252;SDS011;11795;47.054;15.408;2023-09-07T07:05:58;6.3;;;5.7;;
23252;SDS011;11795;47.054;15.408;2023-09-07T07:07:59;5.8;;;5.1;;
23252;SDS011;11795;47.054;15.408;2023-09-07T07:09:58;5.8;;;5.1;;
23252;SDS011;11795;47.054;15.408;2023-09-07T07:11:59;5.8;;;5.1;;
23252;SDS011;11795;47.054;15.408;2023-09-07T07:13:58;7.1;;;5.1;;
23252;SDS011;11795;47.054;15.408;2023-09-07T07:15:58;7.1;;;5.1;;
23252;SDS011;11795;47.054;15.408;2023-09-07T07:17:58;5.9;;;5.3;;
23252;SDS011;11795;47.054;15.408;2023-09-07T07:19:58;5.9;;;5.3;;
23252;SDS011;11795;47.054;15.408;2023-09-07T07:21:58;5.9;;;5.3;;
23252;SDS011;11795;47.054;15.408;2023-09-07T07:23:58;7.4;;;5.2;;
23252;SDS011;11795;47.054;15.408;2023-09-07T07:25:58;7.4;;;5.2;;
23252;SDS011;11795;47.054;15.408;2023-09-07T07:28:00;7.0;;;5.0;;
23252;SDS011;11795;47.054;15.408;2023-09-07T07:29:58;7.0;;;5.0;;
23252;SDS011;11795;47.054;15.408;2023-09-07T07:31:58;7.0;;;5.0;;
23252;SDS011;11795;47.054;15.408;2023-09-07T07:33:58;5.5;;;4.7;;
23252;SDS011;11795;47.054;15.408;2023-09-07T07:35:58;5.5;;;4.7;;
23252;SDS011;11795;47.054;15.408;2023-09-07T07:37:58;5.6;;;4.6;;
23252;SDS011;11795;47.054;15.408;2023-09-07T07:39:59;5.6;;;4.6;;
23252;SDS011;11795;47.054;15.408;2023-09-07T07:41:58;5.6;;;4.6;;
23252;SDS011;11795;47.054;15.408;2023-09-07T07:43:58;7.1;;;5.3;;
23252;SDS011;11795;47.054;15.408;2023-09-07T07:45:59;7.1;;;5.3;;
23252;SDS011;11795;47.054;15.408;2023-09-07T07:47:58;6.7;;;4.3;;
23252;SDS011;11795;47.054;15.408;2023-09-07T07:49:58;6.7;;;4.3;;
23252;SDS011;11795;47.054;15.408;2023-09-07T07:51:58;6.7;;;4.3;;
23252;SDS011;11795;47.054;15.408;2023-09-07T07:53:58;6.9;;;4.8;;
23252;SDS011;11795;47.054;15.408;2023-09-07T07:55:58;6.9;;;4.8;;
23252;SDS011;11795;47.054;15.408;2023-09-07T07:57:58;5.5;;;4.7;;
23252;SDS011;11795;47.054;15.408;2023-09-07T07:59:58;5.5;;;4.7;;
23252;SDS011;11795;47.054;15.408;2023-09-07T08:01:58;5.5;;;4.7;;
23252;SDS011;11795;47.054;15.408;2023-09-07T08:03:58;5.9;;;4.4;;
23252;SDS011;11795;47.054;15.408;2023-09-07T08:05:58;5.9;;;4.4;;
23252;SDS011;11795;47.054;15.408;2023-09-07T08:07:58;5.3;;;4.3;;
23252;SDS011;11795;47.054;15.408;2023-09-07T08:09:58;5.3;;;4.3;;
23252;SDS011;11795;47.054;15.408;2023-09-07T08:12:00;5.3;;;4.3;;
23252;SDS011;11795;47.054;15.408;2023-09-07T08:13:58;6.1;;;4.1;;
23252;SDS011;11795;47.054;15.408;2023-09-07T08:15:58;6.1;;;4.1;;
23252;SDS011;11795;47.054;15.408;2023-09-07T08:17:58;4.6;;;3.9;;
23252;SDS011;11795;47.054;15.408;2023-09-07T08:19:58;4.6;;;3.9;;
23252;SDS011;11795;47.054;15.408;2023-09-07T08:21:58;4.6;;;3.9;;
23252;SDS011;11795;47.054;15.408;2023-09-07T08:23:59;5.5;;;3.9;;
23252;SDS011;11795;47.054;15.408;2023-09-07T08:26:00;5.5;;;3.9;;
23252;SDS011;11795;47.054;15.408;2023-09-07T08:27:59;5.2;;;3.5;;
23252;SDS011;11795;47.054;15.408;2023-09-07T08:29:59;5.2;;;3.5;;
23252;SDS011;11795;47.054;15.408;2023-09-07T08:31:59;5.2;;;3.5;;
23252;SDS011;11795;47.054;15.408;2023-09-07T08:33:58;7.8;;;4.0;;
23252;SDS011;11795;47.054;15.408;2023-09-07T08:36:00;7.8;;;4.0;;
23252;SDS011;11795;47.054;15.408;2023-09-07T08:38:01;4.9;;;3.7;;
23252;SDS011;11795;47.054;15.408;2023-09-07T08:39:59;4.9;;;3.7;;
23252;SDS011;11795;47.054;15.408;2023-09-07T08:41:58;4.9;;;3.7;;
23252;SDS011;11795;47.054;15.408;2023-09-07T08:43:58;5.3;;;3.6;;
23252;SDS011;11795;47.054;15.408;2023-09-07T08:46:02;5.3;;;3.6;;
23252;SDS011;11795;47.054;15.408;2023-09-07T08:47:58;7.2;;;4.1;;
23252;SDS011;11795;47.054;15.408;2023-09-07T08:49:58;7.2;;;4.1;;
23252;SDS011;11795;47.054;15.408;2023-09-07T08:51:59;7.2;;;4.1;;
23252;SDS011;11795;47.054;15.408;2023-09-07T08:53:58;6.9;;;3.8;;
23252;SDS011;11795;47.054;15.408;2023-09-07T08:55:59;6.9;;;3.8;;
23252;SDS011;11795;47.054;15.408;2023-09-07T08:57:58;3.8;;;3.0;;
23252;SDS011;11795;47.054;15.408;2023-09-07T08:59:58;3.8;;;3.0;;
23252;SDS011;11795;47.054;15.408;2023-09-07T09:01:58;3.8;;;3.0;;
23252;SDS011;11795;47.054;15.408;2023-09-07T09:03:58;5.6;;;3.0;;
23252;SDS011;11795;47.054;15.408;2023-09-07T09:05:58;5.6;;;3.0;;
23252;SDS011;11795;47.054;15.408;2023-09-07T09:08:01;5.4;;;3.1;;
23252;SDS011;11795;47.054;15.408;2023-09-07T09:10:03;5.4;;;3.1;;
23252;SDS011;11795;47.054;15.408;2023-09-07T09:12:06;5.4;;;3.1;;
23252;SDS011;11795;47.054;15.408;2023-09-07T09:13:58;6.3;;;3.8;;
23252;SDS011;11795;47.054;15.408;2023-09-07T09:15:58;6.3;;;3.8;;
23252;SDS011;11795;47.054;15.408;2023-09-07T09:18:08;6.4;;;4.0;;
23252;SDS011;11795;47.054;15.408;2023-09-07T09:19:58;6.4;;;4.0;;
23252;SDS011;11795;47.054;15.408;2023-09-07T09:21:58;6.4;;;4.0;;
23252;SDS011;11795;47.054;15.408;2023-09-07T09:24:00;5.6;;;3.7;;
23252;SDS011;11795;47.054;15.408;2023-09-07T09:25:59;5.6;;;3.7;;
23252;SDS011;11795;47.054;15.408;2023-09-07T09:27:58;6.3;;;3.7;;
23252;SDS011;11795;47.054;15.408;2023-09-07T09:29:58;6.3;;;3.7;;
23252;SDS011;11795;47.054;15.408;2023-09-07T09:31:59;6.3;;;3.7;;
23252;SDS011;11795;47.054;15.408;2023-09-07T09:33:58;4.5;;;3.8;;
23252;SDS011;11795;47.054;15.408;2023-09-07T09:35:58;4.5;;;3.8;;
23252;SDS011;11795;47.054;15.408;2023-09-07T09:38:00;5.0;;;3.4;;
23252;SDS011;11795;47.054;15.408;2023-09-07T09:39:59;5.0;;;3.4;;
23252;SDS011;11795;47.054;15.408;2023-09-07T09:41:59;5.0;;;3.4;;
23252;SDS011;11795;47.054;15.408;2023-09-07T09:43:58;5.2;;;3.7;;
23252;SDS011;11795;47.054;15.408;2023-09-07T09:45:59;5.2;;;3.7;;
23252;SDS011;11795;47.054;15.408;2023-09-07T09:47:59;5.2;;;3.7;;
23252;SDS011;11795;47.054;15.408;2023-09-07T09:49:58;5.3;;;3.8;;
23252;SDS011;11795;47.054;15.408;2023-09-07T09:51:58;5.3;;;3.8;;
23252;SDS011;11795;47.054;15.408;2023-09-07T09:53:58;4.8;;;3.7;;
23252;SDS011;11795;47.054;15.408;2023-09-07T09:55:58;4.8;;;3.7;;
23252;SDS011;11795;47.054;15.408;2023-09-07T09:57:58;4.8;;;3.7;;
23252;SDS011;11795;47.054;15.408;2023-09-07T09:59:58;3.5;;;2.8;;
23252;SDS011;11795;47.054;15.408;2023-09-07T10:02:00;3.5;;;2.8;;
23252;SDS011;11795;47.054;15.408;2023-09-07T10:03:58;4.5;;;3.2;;
23252;SDS011;11795;47.054;15.408;2023-09-07T10:06:07;4.5;;;3.2;;
23252;SDS011;11795;47.054;15.408;2023-09-07T10:08:00;4.5;;;3.2;;
23252;SDS011;11795;47.054;15.408;2023-09-07T10:09:59;4.5;;;3.3;;
23252;SDS011;11795;47.054;15.408;2023-09-07T10:12:00;4.5;;;3.3;;
23252;SDS011;11795;47.054;15.408;2023-09-07T10:13:59;3.5;;;2.7;;
23252;SDS011;11795;47.054;15.408;2023-09-07T10:15:59;3.5;;;2.7;;
23252;SDS011;11795;47.054;15.408;2023-09-07T10:18:06;3.5;;;2.7;;
23252;SDS011;11795;47.054;15.408;2023-09-07T10:20:02;4.3;;;2.9;;
23252;SDS011;11795;47.054;15.408;2023-09-07T10:21:58;4.3;;;2.9;;
23252;SDS011;11795;47.054;15.408;2023-09-07T10:23:58;3.1;;;2.8;;
23252;SDS011;11795;47.054;15.408;2023-09-07T10:25:58;3.1;;;2.8;;
23252;SDS011;11795;47.054;15.408;2023-09-07T10:27:59;3.1;;;2.8;;
23252;SDS011;11795;47.054;15.408;2023-09-07T10:29:58;3.1;;;2.8;;
23252;SDS011;11795;47.054;15.408;2023-09-07T10:32:04;3.1;;;2.8;;
23252;SDS011;11795;47.054;15.408;2023-09-07T10:34:07;4.4;;;3.1;;
23252;SDS011;11795;47.054;15.408;2023-09-07T10:35:58;4.4;;;3.1;;
23252;SDS011;11795;47.054;15.408;2023-09-07T10:37:58;4.4;;;3.1;;
23252;SDS011;11795;47.054;15.408;2023-09-07T10:39:58;3.7;;;2.6;;
23252;SDS011;11795;47.054;15.408;2023-09-07T10:41:58;3.7;;;2.6;;
23252;SDS011;11795;47.054;15.408;2023-09-07T10:43:58;4.4;;;2.8;;
23252;SDS011;11795;47.054;15.408;2023-09-07T10:45:59;4.4;;;2.8;;
23252;SDS011;11795;47.054;15.408;2023-09-07T10:47:58;4.4;;;2.8;;
23252;SDS011;11795;47.054;15.408;2023-09-07T10:49:59;3.3;;;2.8;;
23252;SDS011;11795;47.054;15.408;2023-09-07T10:51:58;3.3;;;2.8;;
23252;SDS011;11795;47.054;15.408;2023-09-07T10:53:58;4.6;;;2.7;;
23252;SDS011;11795;47.054;15.408;2023-09-07T10:55:59;4.6;;;2.7;;
23252;SDS011;11795;47.054;15.408;2023-09-07T10:57:58;4.6;;;2.7;;
23252;SDS011;11795;47.054;15.408;2023-09-07T10:59:58;3.1;;;2.8;;
23252;SDS011;11795;47.054;15.408;2023-09-07T11:02:02;3.1;;;2.8;;
23252;SDS011;11795;47.054;15.408;2023-09-07T11:03:58;4.5;;;2.8;;
23252;SDS011;11795;47.054;15.408;2023-09-07T11:05:59;4.5;;;2.8;;
23252;SDS011;11795;47.054;15.408;2023-09-07T11:08:01;4.5;;;2.8;;
23252;SDS011;11795;47.054;15.408;2023-09-07T11:09:58;3.2;;;2.9;;
23252;SDS011;11795;47.054;15.408;2023-09-07T11:12:03;3.2;;;2.9;;
23252;SDS011;11795;47.054;15.408;2023-09-07T11:13:58;3.7;;;2.8;;
23252;SDS011;11795;47.054;15.408;2023-09-07T11:15:59;3.7;;;2.8;;
23252;SDS011;11795;47.054;15.408;2023-09-07T11:17:58;3.7;;;2.8;;
23252;SDS011;11795;47.054;15.408;2023-09-07T11:20:03;3.2;;;2.9;;
23252;SDS011;11795;47.054;15.408;2023-09-07T11:21:58;3.2;;;2.9;;
23252;SDS011;11795;47.054;15.408;2023-09-07T11:23:58;3.5;;;3.1;;
23252;SDS011;11795;47.054;15.408;2023-09-07T11:25:58;3.5;;;3.1;;
23252;SDS011;11795;47.054;15.408;2023-09-07T11:27:58;3.5;;;3.1;;
23252;SDS011;11795;47.054;15.408;2023-09-07T11:30:00;3.6;;;2.9;;
23252;SDS011;11795;47.054;15.408;2023-09-07T11:32:05;3.6;;;2.9;;
23252;SDS011;11795;47.054;15.408;2023-09-07T11:33:58;3.5;;;3.2;;
23252;SDS011;11795;47.054;15.408;2023-09-07T11:35:58;3.5;;;3.2;;
23252;SDS011;11795;47.054;15.408;2023-09-07T11:37:59;3.5;;;3.2;;
23252;SDS011;11795;47.054;15.408;2023-09-07T11:39:58;4.6;;;3.0;;
23252;SDS011;11795;47.054;15.408;2023-09-07T11:41:58;4.6;;;3.0;;
23252;SDS011;11795;47.054;15.408;2023-09-07T11:43:58;5.0;;;3.6;;
23252;SDS011;11795;47.054;15.408;2023-09-07T11:45:58;5.0;;;3.6;;
23252;SDS011;11795;47.054;15.408;2023-09-07T11:47:58;5.0;;;3.6;;
23252;SDS011;11795;47.054;15.408;2023-09-07T11:49:58;5.2;;;3.2;;
23252;SDS011;11795;47.054;15.408;2023-09-07T11:51:58;5.2;;;3.2;;
23252;SDS011;11795;47.054;15.408;2023-09-07T11:53:59;3.9;;;2.9;;
23252;SDS011;11795;47.054;15.408;2023-09-07T11:55:58;3.9;;;2.9;;
23252;SDS011;11795;47.054;15.408;2023-09-07T11:57:58;3.9;;;2.9;;
23252;SDS011;11795;47.054;15.408;2023-09-07T11:59:58;3.0;;;2.8;;
23252;SDS011;11795;47.054;15.408;2023-09-07T12:01:58;3.0;;;2.8;;
23252;SDS011;11795;47.054;15.408;2023-09-07T12:03:58;4.1;;;2.9;;
23252;SDS011;11795;47.054;15.408;2023-09-07T12:05:58;4.1;;;2.9;;
23252;SDS011;11795;47.054;15.408;2023-09-07T12:07:58;4.1;;;2.9;;
23252;SDS011;11795;47.054;15.408;2023-09-07T12:09:58;4.4;;;3.2;;
23252;SDS011;11795;47.054;15.408;2023-09-07T12:11:58;4.4;;;3.2;;
23252;SDS011;11795;47.054;15.408;2023-09-07T12:13:58;3.6;;;2.9;;
23252;SDS011;11795;47.054;15.408;2023-09-07T12:15:58;3.6;;;2.9;;
23252;SDS011;11795;47.054;15.408;2023-09-07T12:17:58;3.6;;;2.9;;